sensor_id;sensor_type;location;lat;lon;timestamp;pressure;altitude;pressure_sealevel;temperature
19061;BMP280;9663;48.996;8.334;2023-04-30T00:00:14;100635.25;;;18.27
19061;BMP280;9663;48.996;8.334;2023-04-30T00:02:40;100641.31;;;18.25
19061;BMP280;9663;48.996;8.334;2023-04-30T00:05:06;100632.91;;;18.20
19061;BMP280;9663;48.996;8.334;2023-04-30T00:07:31;100640.63;;;18.20
19061;BMP280;9663;48.996;8.334;2023-04-30T00:09:57;100639.00;;;18.16
19061;BMP280;9663;48.996;8.334;2023-04-30T00:12:23;100642.56;;;18.10
19061;BMP280;9663;48.996;8.334;2023-04-30T00:14:49;100640.00;;;18.12
19061;BMP280;9663;48.996;8.334;2023-04-30T00:17:14;100651.06;;;18.14
19061;BMP280;9663;48.996;8.334;2023-04-30T00:19:41;100639.94;;;18.13
19061;BMP280;9663;48.996;8.334;2023-04-30T00:22:07;100645.03;;;18.15
19061;BMP280;9663;48.996;8.334;2023-04-30T00:24:33;100654.41;;;18.16
19061;BMP280;9663;48.996;8.334;2023-04-30T00:26:59;100653.53;;;18.17
19061;BMP280;9663;48.996;8.334;2023-04-30T00:29:25;100644.13;;;18.16
19061;BMP280;9663;48.996;8.334;2023-04-30T00:31:50;100655.19;;;18.18
19061;BMP280;9663;48.996;8.334;2023-04-30T00:34:16;100658.50;;;18.21
19061;BMP280;9663;48.996;8.334;2023-04-30T00:36:42;100655.19;;;18.18
19061;BMP280;9663;48.996;8.334;2023-04-30T00:39:07;100652.63;;;18.18
19061;BMP280;9663;48.996;8.334;2023-04-30T00:41:34;100647.59;;;18.15
19061;BMP280;9663;48.996;8.334;2023-04-30T00:44:00;100642.47;;;18.15
19061;BMP280;9663;48.996;8.334;2023-04-30T00:46:29;100643.38;;;18.12
19061;BMP280;9663;48.996;8.334;2023-04-30T00:48:55;100640.00;;;18.10
19061;BMP280;9663;48.996;8.334;2023-04-30T00:51:21;100633.16;;;18.09
19061;BMP280;9663;48.996;8.334;2023-04-30T00:53:47;100634.88;;;18.10
19061;BMP280;9663;48.996;8.334;2023-04-30T00:56:14;100625.53;;;18.06
19061;BMP280;9663;48.996;8.334;2023-04-30T00:58:44;100631.59;;;18.05
19061;BMP280;9663;48.996;8.334;2023-04-30T01:01:10;100634.19;;;18.04
19061;BMP280;9663;48.996;8.334;2023-04-30T01:03:36;100633.31;;;18.05
19061;BMP280;9663;48.996;8.334;2023-04-30T01:06:02;100644.41;;;18.05
19061;BMP280;9663;48.996;8.334;2023-04-30T01:08:30;100641.81;;;18.07
19061;BMP280;9663;48.996;8.334;2023-04-30T01:11:25;100626.56;;;18.01
19061;BMP280;9663;48.996;8.334;2023-04-30T01:14:11;100619.91;;;17.96
19061;BMP280;9663;48.996;8.334;2023-04-30T01:17:07;100631.16;;;17.90
19061;BMP280;9663;48.996;8.334;2023-04-30T01:19:45;100631.06;;;17.93
19061;BMP280;9663;48.996;8.334;2023-04-30T01:28:04;100630.31;;;17.90
19061;BMP280;9663;48.996;8.334;2023-04-30T01:30:32;100626.03;;;17.90
19061;BMP280;9663;48.996;8.334;2023-04-30T01:32:59;100622.59;;;17.91
19061;BMP280;9663;48.996;8.334;2023-04-30T01:35:38;100626.81;;;17.94
19061;BMP280;9663;48.996;8.334;2023-04-30T01:44:38;100624.41;;;17.88
19061;BMP280;9663;48.996;8.334;2023-04-30T01:47:25;100620.13;;;17.87
19061;BMP280;9663;48.996;8.334;2023-04-30T01:55:40;100611.69;;;17.83
19061;BMP280;9663;48.996;8.334;2023-04-30T01:58:11;100610.00;;;17.84
19061;BMP280;9663;48.996;8.334;2023-04-30T02:00:38;100615.00;;;17.87
19061;BMP280;9663;48.996;8.334;2023-04-30T02:03:03;100616.75;;;17.86
19061;BMP280;9663;48.996;8.334;2023-04-30T02:05:29;100614.19;;;17.86
19061;BMP280;9663;48.996;8.334;2023-04-30T02:07:55;100610.75;;;17.87
19061;BMP280;9663;48.996;8.334;2023-04-30T02:10:25;100614.19;;;17.86
19061;BMP280;9663;48.996;8.334;2023-04-30T02:12:52;100609.13;;;17.83
19061;BMP280;9663;48.996;8.334;2023-04-30T02:15:18;100609.16;;;17.82
19061;BMP280;9663;48.996;8.334;2023-04-30T02:17:44;100618.56;;;17.83
19061;BMP280;9663;48.996;8.334;2023-04-30T02:20:10;100619.47;;;17.80
19061;BMP280;9663;48.996;8.334;2023-04-30T02:22:36;100619.53;;;17.79
19061;BMP280;9663;48.996;8.334;2023-04-30T02:25:02;100618.63;;;17.80
19061;BMP280;9663;48.996;8.334;2023-04-30T02:27:30;100618.69;;;17.78
19061;BMP280;9663;48.996;8.334;2023-04-30T02:29:57;100619.53;;;17.79
19061;BMP280;9663;48.996;8.334;2023-04-30T02:32:23;100614.41;;;17.79
19061;BMP280;9663;48.996;8.334;2023-04-30T02:34:49;100617.84;;;17.78
19061;BMP280;9663;48.996;8.334;2023-04-30T02:37:15;100615.28;;;17.78
19061;BMP280;9663;48.996;8.334;2023-04-30T02:39:40;100624.72;;;17.77
19061;BMP280;9663;48.996;8.334;2023-04-30T02:42:07;100623.03;;;17.75
19061;BMP280;9663;48.996;8.334;2023-04-30T02:44:33;100621.38;;;17.74
19061;BMP280;9663;48.996;8.334;2023-04-30T02:47:00;100625.63;;;17.75
19061;BMP280;9663;48.996;8.334;2023-04-30T02:49:27;100623.03;;;17.75
19061;BMP280;9663;48.996;8.334;2023-04-30T02:51:53;100608.63;;;17.71
19061;BMP280;9663;48.996;8.334;2023-04-30T02:54:19;100608.59;;;17.72
19061;BMP280;9663;48.996;8.334;2023-04-30T02:56:46;100618.03;;;17.70
19061;BMP280;9663;48.996;8.334;2023-04-30T02:59:12;100611.25;;;17.69
19061;BMP280;9663;48.996;8.334;2023-04-30T03:01:37;100620.59;;;17.70
19061;BMP280;9663;48.996;8.334;2023-04-30T03:04:03;100616.38;;;17.69
19061;BMP280;9663;48.996;8.334;2023-04-30T03:06:32;100613.78;;;17.71
19061;BMP280;9663;48.996;8.334;2023-04-30T03:08:58;100613.81;;;17.69
19061;BMP280;9663;48.996;8.334;2023-04-30T03:11:25;100612.06;;;17.70
19061;BMP280;9663;48.996;8.334;2023-04-30T03:13:52;100605.44;;;17.63
19061;BMP280;9663;48.996;8.334;2023-04-30T03:16:20;100621.59;;;17.66
19061;BMP280;9663;48.996;8.334;2023-04-30T03:18:47;100612.22;;;17.64
19061;BMP280;9663;48.996;8.334;2023-04-30T03:21:14;100609.72;;;17.62
19061;BMP280;9663;48.996;8.334;2023-04-30T03:23:39;100601.19;;;17.62
19061;BMP280;9663;48.996;8.334;2023-04-30T03:26:05;100605.47;;;17.61
19061;BMP280;9663;48.996;8.334;2023-04-30T03:28:31;100605.47;;;17.61
19061;BMP280;9663;48.996;8.334;2023-04-30T03:30:56;100608.13;;;17.58
19061;BMP280;9663;48.996;8.334;2023-04-30T03:33:23;100603.06;;;17.55
19061;BMP280;9663;48.996;8.334;2023-04-30T03:35:49;100600.50;;;17.55
19061;BMP280;9663;48.996;8.334;2023-04-30T03:38:16;100601.44;;;17.53
19061;BMP280;9663;48.996;8.334;2023-04-30T03:40:42;100604.03;;;17.52
19061;BMP280;9663;48.996;8.334;2023-04-30T03:43:07;100598.94;;;17.50
19061;BMP280;9663;48.996;8.334;2023-04-30T03:45:33;100602.38;;;17.49
19061;BMP280;9663;48.996;8.334;2023-04-30T03:47:59;100601.63;;;17.46
19061;BMP280;9663;48.996;8.334;2023-04-30T03:50:24;100600.78;;;17.45
19061;BMP280;9663;48.996;8.334;2023-04-30T03:52:50;100600.84;;;17.44
19061;BMP280;9663;48.996;8.334;2023-04-30T03:55:16;100601.69;;;17.43
19061;BMP280;9663;48.996;8.334;2023-04-30T03:57:42;100595.81;;;17.39
19061;BMP280;9663;48.996;8.334;2023-04-30T04:00:09;100601.84;;;17.38
19061;BMP280;9663;48.996;8.334;2023-04-30T04:02:36;100601.88;;;17.37
19061;BMP280;9663;48.996;8.334;2023-04-30T04:05:03;100605.25;;;17.39
19061;BMP280;9663;48.996;8.334;2023-04-30T04:07:29;100606.09;;;17.38
19061;BMP280;9663;48.996;8.334;2023-04-30T04:09:54;100606.97;;;17.38
19061;BMP280;9663;48.996;8.334;2023-04-30T04:12:20;100605.38;;;17.33
19061;BMP280;9663;48.996;8.334;2023-04-30T04:14:46;100601.19;;;17.30
19061;BMP280;9663;48.996;8.334;2023-04-30T04:17:12;100602.03;;;17.31
19061;BMP280;9663;48.996;8.334;2023-04-30T04:19:38;100609.66;;;17.34
19061;BMP280;9663;48.996;8.334;2023-04-30T04:22:05;100610.47;;;17.34
19061;BMP280;9663;48.996;8.334;2023-04-30T04:24:31;100613.06;;;17.33
19061;BMP280;9663;48.996;8.334;2023-04-30T04:26:56;100613.06;;;17.33
19061;BMP280;9663;48.996;8.334;2023-04-30T04:29:22;100618.31;;;17.30
19061;BMP280;9663;48.996;8.334;2023-04-30T04:31:48;100615.78;;;17.28
19061;BMP280;9663;48.996;8.334;2023-04-30T04:34:16;100619.19;;;17.29
19061;BMP280;9663;48.996;8.334;2023-04-30T04:36:42;100614.91;;;17.28
19061;BMP280;9663;48.996;8.334;2023-04-30T04:39:08;100626.88;;;17.29
19061;BMP280;9663;48.996;8.334;2023-04-30T04:41:34;100614.06;;;17.29
19061;BMP280;9663;48.996;8.334;2023-04-30T04:44:00;100619.13;;;17.30
19061;BMP280;9663;48.996;8.334;2023-04-30T04:46:26;100622.53;;;17.31
19061;BMP280;9663;48.996;8.334;2023-04-30T04:48:52;100619.09;;;17.32
19061;BMP280;9663;48.996;8.334;2023-04-30T04:51:19;100619.91;;;17.34
19061;BMP280;9663;48.996;8.334;2023-04-30T04:53:44;100619.03;;;17.35
19061;BMP280;9663;48.996;8.334;2023-04-30T04:56:10;100629.16;;;17.39
19061;BMP280;9663;48.996;8.334;2023-04-30T04:58:36;100624.03;;;17.39
19061;BMP280;9663;48.996;8.334;2023-04-30T05:01:02;100626.47;;;17.44
19061;BMP280;9663;48.996;8.334;2023-04-30T05:03:30;100621.34;;;17.44
19061;BMP280;9663;48.996;8.334;2023-04-30T05:05:57;100626.41;;;17.47
19061;BMP280;9663;48.996;8.334;2023-04-30T05:08:23;100633.22;;;17.48
19061;BMP280;9663;48.996;8.334;2023-04-30T05:10:49;100629.78;;;17.47
19061;BMP280;9663;48.996;8.334;2023-04-30T05:13:14;100622.09;;;17.47
19061;BMP280;9663;48.996;8.334;2023-04-30T05:15:40;100633.16;;;17.49
19061;BMP280;9663;48.996;8.334;2023-04-30T05:18:06;100631.50;;;17.48
19061;BMP280;9663;48.996;8.334;2023-04-30T05:20:31;100624.59;;;17.50
19061;BMP280;9663;48.996;8.334;2023-04-30T05:22:57;100626.19;;;17.54
19061;BMP280;9663;48.996;8.334;2023-04-30T05:25:22;100633.81;;;17.57
19061;BMP280;9663;48.996;8.334;2023-04-30T05:27:51;100640.59;;;17.59
19061;BMP280;9663;48.996;8.334;2023-04-30T05:30:16;100640.56;;;17.61
19061;BMP280;9663;48.996;8.334;2023-04-30T05:32:43;100637.03;;;17.63
19061;BMP280;9663;48.996;8.334;2023-04-30T05:35:18;100635.19;;;17.68
19061;BMP280;9663;48.996;8.334;2023-04-30T05:37:44;100635.91;;;17.73
19061;BMP280;9663;48.996;8.334;2023-04-30T05:40:11;100639.16;;;17.80
19061;BMP280;9663;48.996;8.334;2023-04-30T05:42:37;100639.91;;;17.83
19061;BMP280;9663;48.996;8.334;2023-04-30T05:45:06;100638.13;;;17.85
19061;BMP280;9663;48.996;8.334;2023-04-30T05:47:32;100632.97;;;17.87
19061;BMP280;9663;48.996;8.334;2023-04-30T05:49:58;100635.47;;;17.90
19061;BMP280;9663;48.996;8.334;2023-04-30T05:52:24;100639.69;;;17.92
19061;BMP280;9663;48.996;8.334;2023-04-30T05:54:49;100631.06;;;17.93
19061;BMP280;9663;48.996;8.334;2023-04-30T05:57:15;100636.97;;;17.96
19061;BMP280;9663;48.996;8.334;2023-04-30T05:59:41;100629.22;;;17.98
19061;BMP280;9663;48.996;8.334;2023-04-30T06:02:07;100636.72;;;18.05
19061;BMP280;9663;48.996;8.334;2023-04-30T06:04:33;100642.47;;;18.15
19061;BMP280;9663;48.996;8.334;2023-04-30T06:06:59;100643.97;;;18.22
19061;BMP280;9663;48.996;8.334;2023-04-30T06:09:25;100648.00;;;18.30
19061;BMP280;9663;48.996;8.334;2023-04-30T06:11:50;100638.38;;;18.37
19061;BMP280;9663;48.996;8.334;2023-04-30T06:14:17;100637.34;;;18.42
19061;BMP280;9663;48.996;8.334;2023-04-30T06:16:44;100641.47;;;18.47
19061;BMP280;9663;48.996;8.334;2023-04-30T06:19:10;100637.88;;;18.53
19061;BMP280;9663;48.996;8.334;2023-04-30T06:21:36;100637.50;;;18.65
19061;BMP280;9663;48.996;8.334;2023-04-30T06:24:03;100637.06;;;18.78
19061;BMP280;9663;48.996;8.334;2023-04-30T06:26:29;100631.63;;;18.88
19061;BMP280;9663;48.996;8.334;2023-04-30T06:28:55;100633.78;;;19.02
19061;BMP280;9663;48.996;8.334;2023-04-30T06:31:21;100628.28;;;19.12
19061;BMP280;9663;48.996;8.334;2023-04-30T06:33:47;100631.38;;;19.22
19061;BMP280;9663;48.996;8.334;2023-04-30T06:36:13;100627.66;;;19.30
19061;BMP280;9663;48.996;8.334;2023-04-30T06:38:39;100627.44;;;19.36
19061;BMP280;9663;48.996;8.334;2023-04-30T06:41:07;100623.94;;;19.38
19061;BMP280;9663;48.996;8.334;2023-04-30T06:43:32;100622.88;;;19.44
19061;BMP280;9663;48.996;8.334;2023-04-30T06:45:58;100623.69;;;19.46
19061;BMP280;9663;48.996;8.334;2023-04-30T06:48:23;100622.63;;;19.51
19061;BMP280;9663;48.996;8.334;2023-04-30T06:50:49;100629.34;;;19.55
19061;BMP280;9663;48.996;8.334;2023-04-30T06:53:15;100624.88;;;19.60
19061;BMP280;9663;48.996;8.334;2023-04-30T06:55:41;100632.59;;;19.60
19061;BMP280;9663;48.996;8.334;2023-04-30T06:58:07;100637.84;;;19.57
19061;BMP280;9663;48.996;8.334;2023-04-30T07:00:36;100629.25;;;19.58
19061;BMP280;9663;48.996;8.334;2023-04-30T07:03:02;100635.94;;;19.62
19061;BMP280;9663;48.996;8.334;2023-04-30T07:05:29;100635.84;;;19.65
19061;BMP280;9663;48.996;8.334;2023-04-30T07:07:56;100628.81;;;19.70
19061;BMP280;9663;48.996;8.334;2023-04-30T07:10:22;100625.25;;;19.74
19061;BMP280;9663;48.996;8.334;2023-04-30T07:12:48;100629.28;;;19.81
19061;BMP280;9663;48.996;8.334;2023-04-30T07:15:14;100629.88;;;19.89
19061;BMP280;9663;48.996;8.334;2023-04-30T07:17:39;100631.31;;;19.96
19061;BMP280;9663;48.996;8.334;2023-04-30T07:20:07;100630.03;;;20.07
19061;BMP280;9663;48.996;8.334;2023-04-30T07:22:34;100630.59;;;20.15
19061;BMP280;9663;48.996;8.334;2023-04-30T07:25:00;100619.28;;;20.19
19061;BMP280;9663;48.996;8.334;2023-04-30T07:27:28;100623.91;;;20.32
19061;BMP280;9663;48.996;8.334;2023-04-30T07:29:54;100614.88;;;20.44
19061;BMP280;9663;48.996;8.334;2023-04-30T07:32:21;100612.75;;;20.55
19061;BMP280;9663;48.996;8.334;2023-04-30T07:34:46;100612.41;;;20.62
19061;BMP280;9663;48.996;8.334;2023-04-30T07:37:13;100612.88;;;20.73
19061;BMP280;9663;48.996;8.334;2023-04-30T07:39:38;100616.06;;;20.79
19061;BMP280;9663;48.996;8.334;2023-04-30T07:42:05;100605.31;;;20.90
19061;BMP280;9663;48.996;8.334;2023-04-30T07:44:31;100608.59;;;20.93
19061;BMP280;9663;48.996;8.334;2023-04-30T07:46:57;100609.25;;;20.98
19061;BMP280;9663;48.996;8.334;2023-04-30T07:49:22;100601.16;;;21.07
19061;BMP280;9663;48.996;8.334;2023-04-30T07:51:48;100600.56;;;21.20
19061;BMP280;9663;48.996;8.334;2023-04-30T07:54:14;100604.31;;;21.33
19061;BMP280;9663;48.996;8.334;2023-04-30T07:56:39;100603.22;;;21.39
19061;BMP280;9663;48.996;8.334;2023-04-30T07:59:06;100597.78;;;21.46
19061;BMP280;9663;48.996;8.334;2023-04-30T08:01:31;100594.66;;;21.58
19061;BMP280;9663;48.996;8.334;2023-04-30T08:03:57;100599.56;;;21.64
19061;BMP280;9663;48.996;8.334;2023-04-30T08:06:24;100599.34;;;21.68
19061;BMP280;9663;48.996;8.334;2023-04-30T08:08:49;100595.53;;;21.77
19061;BMP280;9663;48.996;8.334;2023-04-30T08:11:15;100594.84;;;21.91
19061;BMP280;9663;48.996;8.334;2023-04-30T08:13:41;100601.06;;;22.06
19061;BMP280;9663;48.996;8.334;2023-04-30T08:16:07;100609.16;;;22.18
19061;BMP280;9663;48.996;8.334;2023-04-30T08:18:33;100605.16;;;22.30
19061;BMP280;9663;48.996;8.334;2023-04-30T08:20:59;100597.03;;;22.37
19061;BMP280;9663;48.996;8.334;2023-04-30T08:23:26;100606.03;;;22.47
19061;BMP280;9663;48.996;8.334;2023-04-30T08:25:52;100604.13;;;22.50
19061;BMP280;9663;48.996;8.334;2023-04-30T08:28:18;100613.53;;;22.53
19061;BMP280;9663;48.996;8.334;2023-04-30T08:30:44;100607.22;;;22.58
19061;BMP280;9663;48.996;8.334;2023-04-30T08:33:10;100611.47;;;22.59
19061;BMP280;9663;48.996;8.334;2023-04-30T08:35:36;100607.13;;;22.60
19061;BMP280;9663;48.996;8.334;2023-04-30T08:38:02;100614.13;;;22.58
19061;BMP280;9663;48.996;8.334;2023-04-30T08:40:29;100599.38;;;22.60
19061;BMP280;9663;48.996;8.334;2023-04-30T08:43:07;100605.94;;;22.67
19061;BMP280;9663;48.996;8.334;2023-04-30T08:45:35;100597.97;;;22.71
19061;BMP280;9663;48.996;8.334;2023-04-30T08:48:02;100606.19;;;22.79
19061;BMP280;9663;48.996;8.334;2023-04-30T08:50:30;100603.94;;;22.90
19061;BMP280;9663;48.996;8.334;2023-04-30T08:52:58;100593.09;;;23.00
19061;BMP280;9663;48.996;8.334;2023-04-30T08:55:27;100595.81;;;23.14
19061;BMP280;9663;48.996;8.334;2023-04-30T08:57:53;100604.78;;;23.24
19061;BMP280;9663;48.996;8.334;2023-04-30T09:00:19;100607.78;;;23.33
19061;BMP280;9663;48.996;8.334;2023-04-30T09:02:47;100607.41;;;23.41
19061;BMP280;9663;48.996;8.334;2023-04-30T09:05:14;100605.56;;;23.43
19061;BMP280;9663;48.996;8.334;2023-04-30T09:07:43;100604.25;;;23.51
19061;BMP280;9663;48.996;8.334;2023-04-30T09:10:20;100608.81;;;23.63
19061;BMP280;9663;48.996;8.334;2023-04-30T09:13:09;100596.91;;;23.76
19061;BMP280;9663;48.996;8.334;2023-04-30T09:15:38;100604.03;;;23.88
19061;BMP280;9663;48.996;8.334;2023-04-30T09:18:16;100613.41;;;23.90
19061;BMP280;9663;48.996;8.334;2023-04-30T09:20:58;100608.47;;;23.86
19061;BMP280;9663;48.996;8.334;2023-04-30T09:23:27;100601.72;;;23.83
19061;BMP280;9663;48.996;8.334;2023-04-30T09:25:53;100601.53;;;23.86
19061;BMP280;9663;48.996;8.334;2023-04-30T09:28:19;100599.72;;;23.88
19061;BMP280;9663;48.996;8.334;2023-04-30T09:30:49;100608.25;;;23.90
19061;BMP280;9663;48.996;8.334;2023-04-30T09:33:15;100603.72;;;23.94
19061;BMP280;9663;48.996;8.334;2023-04-30T09:35:41;100611.34;;;23.97
19061;BMP280;9663;48.996;8.334;2023-04-30T09:38:24;100604.41;;;23.97
19061;BMP280;9663;48.996;8.334;2023-04-30T09:40:50;100603.16;;;24.04
19061;BMP280;9663;48.996;8.334;2023-04-30T09:43:16;100604.59;;;24.09
19061;BMP280;9663;48.996;8.334;2023-04-30T09:45:46;100600.25;;;24.10
19061;BMP280;9663;48.996;8.334;2023-04-30T09:48:21;100587.13;;;24.13
19061;BMP280;9663;48.996;8.334;2023-04-30T09:50:48;100586.78;;;24.19
19061;BMP280;9663;48.996;8.334;2023-04-30T09:53:15;100593.81;;;24.32
19061;BMP280;9663;48.996;8.334;2023-04-30T09:55:49;100596.06;;;24.53
19061;BMP280;9663;48.996;8.334;2023-04-30T09:58:17;100587.28;;;24.71
19061;BMP280;9663;48.996;8.334;2023-04-30T10:00:45;100583.81;;;24.86
19061;BMP280;9663;48.996;8.334;2023-04-30T10:03:14;100587.97;;;25.04
19061;BMP280;9663;48.996;8.334;2023-04-30T10:05:46;100589.69;;;25.19
19061;BMP280;9663;48.996;8.334;2023-04-30T10:08:27;100589.44;;;25.23
19061;BMP280;9663;48.996;8.334;2023-04-30T10:11:04;100590.09;;;25.27
19061;BMP280;9663;48.996;8.334;2023-04-30T10:13:50;100589.59;;;25.20
19061;BMP280;9663;48.996;8.334;2023-04-30T10:16:41;100588.28;;;25.13
19061;BMP280;9663;48.996;8.334;2023-04-30T10:19:19;100581.22;;;25.01
19061;BMP280;9663;48.996;8.334;2023-04-30T10:21:46;100571.25;;;24.94
19061;BMP280;9663;48.996;8.334;2023-04-30T10:24:13;100570.75;;;24.88
19061;BMP280;9663;48.996;8.334;2023-04-30T10:26:40;100582.31;;;24.82
19061;BMP280;9663;48.996;8.334;2023-04-30T10:29:08;100564.34;;;24.79
19061;BMP280;9663;48.996;8.334;2023-04-30T10:31:35;100564.00;;;24.85
19061;BMP280;9663;48.996;8.334;2023-04-30T10:34:49;100554.34;;;25.02
19061;BMP280;9663;48.996;8.334;2023-04-30T10:37:45;100556.50;;;25.24
19061;BMP280;9663;48.996;8.334;2023-04-30T10:40:13;100553.66;;;25.42
19061;BMP280;9663;48.996;8.334;2023-04-30T10:42:48;100540.94;;;25.51
19061;BMP280;9663;48.996;8.334;2023-04-30T10:45:17;100551.25;;;25.53
19061;BMP280;9663;48.996;8.334;2023-04-30T10:47:45;100547.75;;;25.54
19061;BMP280;9663;48.996;8.334;2023-04-30T10:50:12;100545.31;;;25.51
19061;BMP280;9663;48.996;8.334;2023-04-30T10:52:38;100548.56;;;25.54
19061;BMP280;9663;48.996;8.334;2023-04-30T10:55:06;100548.31;;;25.59
19061;BMP280;9663;48.996;8.334;2023-04-30T10:57:41;100548.72;;;25.67
19061;BMP280;9663;48.996;8.334;2023-04-30T11:02:46;100550.25;;;25.69
19061;BMP280;9663;48.996;8.334;2023-04-30T11:05:14;100544.88;;;25.72
19061;BMP280;9663;48.996;8.334;2023-04-30T11:07:57;100543.56;;;25.79
19061;BMP280;9663;48.996;8.334;2023-04-30T11:10:27;100536.16;;;25.87
19061;BMP280;9663;48.996;8.334;2023-04-30T11:12:56;100536.50;;;25.95
19061;BMP280;9663;48.996;8.334;2023-04-30T11:15:28;100539.94;;;25.95
19061;BMP280;9663;48.996;8.334;2023-04-30T11:17:57;100525.53;;;26.04
19061;BMP280;9663;48.996;8.334;2023-04-30T11:20:25;100532.34;;;26.19
19061;BMP280;9663;48.996;8.334;2023-04-30T11:23:11;100522.09;;;26.43
19061;BMP280;9663;48.996;8.334;2023-04-30T11:25:48;100522.81;;;26.71
19061;BMP280;9663;48.996;8.334;2023-04-30T11:28:17;100515.50;;;26.90
19061;BMP280;9663;48.996;8.334;2023-04-30T11:30:57;100518.28;;;26.87
19061;BMP280;9663;48.996;8.334;2023-04-30T11:33:28;100511.50;;;26.85
19061;BMP280;9663;48.996;8.334;2023-04-30T11:35:56;100514.75;;;26.88
19061;BMP280;9663;48.996;8.334;2023-04-30T11:38:28;100509.56;;;27.25
19061;BMP280;9663;48.996;8.334;2023-04-30T11:40:56;100504.56;;;27.59
19061;BMP280;9663;48.996;8.334;2023-04-30T11:43:28;100503.81;;;27.82
19061;BMP280;9663;48.996;8.334;2023-04-30T11:46:14;100505.13;;;27.88
19061;BMP280;9663;48.996;8.334;2023-04-30T11:48:43;100496.28;;;27.90
19061;BMP280;9663;48.996;8.334;2023-04-30T11:51:21;100502.09;;;27.94
19061;BMP280;9663;48.996;8.334;2023-04-30T11:53:51;100489.91;;;28.06
19061;BMP280;9663;48.996;8.334;2023-04-30T11:56:22;100485.50;;;28.30
19061;BMP280;9663;48.996;8.334;2023-04-30T11:58:51;100492.44;;;28.42
19061;BMP280;9663;48.996;8.334;2023-04-30T12:01:17;100491.59;;;28.41
19061;BMP280;9663;48.996;8.334;2023-04-30T12:03:47;100486.38;;;28.41
19061;BMP280;9663;48.996;8.334;2023-04-30T12:06:25;100488.06;;;28.42
19061;BMP280;9663;48.996;8.334;2023-04-30T12:08:56;100482.25;;;28.39
19061;BMP280;9663;48.996;8.334;2023-04-30T12:11:28;100484.56;;;28.31
19061;BMP280;9663;48.996;8.334;2023-04-30T12:13:57;100473.16;;;28.21
19061;BMP280;9663;48.996;8.334;2023-04-30T12:16:28;100487.41;;;28.28
19061;BMP280;9663;48.996;8.334;2023-04-30T12:19:03;100481.63;;;28.36
19061;BMP280;9663;48.996;8.334;2023-04-30T12:21:28;100474.84;;;28.33
19061;BMP280;9663;48.996;8.334;2023-04-30T12:23:54;100481.34;;;28.28
19061;BMP280;9663;48.996;8.334;2023-04-30T12:26:21;100483.13;;;28.27
19061;BMP280;9663;48.996;8.334;2023-04-30T12:28:48;100478.34;;;28.21
19061;BMP280;9663;48.996;8.334;2023-04-30T12:31:17;100465.34;;;28.09
19061;BMP280;9663;48.996;8.334;2023-04-30T12:33:43;100463.81;;;28.06
19061;BMP280;9663;48.996;8.334;2023-04-30T12:36:17;100474.66;;;28.13
19061;BMP280;9663;48.996;8.334;2023-04-30T12:38:43;100471.31;;;28.11
19061;BMP280;9663;48.996;8.334;2023-04-30T12:41:12;100469.75;;;28.08
19061;BMP280;9663;48.996;8.334;2023-04-30T12:43:39;100476.97;;;27.93
19061;BMP280;9663;48.996;8.334;2023-04-30T12:46:05;100472.44;;;27.71
19061;BMP280;9663;48.996;8.334;2023-04-30T12:48:43;100472.50;;;27.47
19061;BMP280;9663;48.996;8.334;2023-04-30T12:51:11;100480.00;;;27.26
19061;BMP280;9663;48.996;8.334;2023-04-30T12:53:44;100475.84;;;27.11
19061;BMP280;9663;48.996;8.334;2023-04-30T12:56:15;100465.81;;;27.06
19061;BMP280;9663;48.996;8.334;2023-04-30T12:58:43;100471.66;;;27.09
19061;BMP280;9663;48.996;8.334;2023-04-30T13:01:17;100461.25;;;27.21
19061;BMP280;9663;48.996;8.334;2023-04-30T13:03:43;100460.41;;;27.33
19061;BMP280;9663;48.996;8.334;2023-04-30T13:06:09;100464.38;;;27.39
19061;BMP280;9663;48.996;8.334;2023-04-30T13:08:35;100461.88;;;27.50
19061;BMP280;9663;48.996;8.334;2023-04-30T13:11:01;100460.50;;;27.56
19061;BMP280;9663;48.996;8.334;2023-04-30T13:13:28;100464.78;;;27.57
19061;BMP280;9663;48.996;8.334;2023-04-30T13:15:53;100457.25;;;27.65
19061;BMP280;9663;48.996;8.334;2023-04-30T13:18:19;100468.59;;;27.77
19061;BMP280;9663;48.996;8.334;2023-04-30T13:20:46;100465.94;;;27.89
19061;BMP280;9663;48.996;8.334;2023-04-30T13:23:12;100447.63;;;28.48
19061;BMP280;9663;48.996;8.334;2023-04-30T13:25:40;100443.22;;;29.27
19061;BMP280;9663;48.996;8.334;2023-04-30T13:28:06;100441.53;;;29.59
19061;BMP280;9663;48.996;8.334;2023-04-30T13:30:32;100440.00;;;29.57
19061;BMP280;9663;48.996;8.334;2023-04-30T13:32:59;100430.47;;;29.67
19061;BMP280;9663;48.996;8.334;2023-04-30T13:35:25;100428.66;;;30.31
19061;BMP280;9663;48.996;8.334;2023-04-30T13:37:51;100423.69;;;31.09
19061;BMP280;9663;48.996;8.334;2023-04-30T13:40:19;100412.91;;;31.71
19061;BMP280;9663;48.996;8.334;2023-04-30T13:42:46;100403.81;;;31.85
19061;BMP280;9663;48.996;8.334;2023-04-30T13:45:12;100408.22;;;31.75
19061;BMP280;9663;48.996;8.334;2023-04-30T13:47:38;100403.63;;;31.67
19061;BMP280;9663;48.996;8.334;2023-04-30T13:50:05;100407.06;;;31.68
19061;BMP280;9663;48.996;8.334;2023-04-30T13:52:32;100389.69;;;31.67
19061;BMP280;9663;48.996;8.334;2023-04-30T13:54:58;100395.25;;;31.83
19061;BMP280;9663;48.996;8.334;2023-04-30T13:57:24;100394.06;;;31.96
19061;BMP280;9663;48.996;8.334;2023-04-30T13:59:50;100388.91;;;32.04
19061;BMP280;9663;48.996;8.334;2023-04-30T14:02:17;100387.69;;;32.17
19061;BMP280;9663;48.996;8.334;2023-04-30T14:04:43;100381.31;;;32.20
19061;BMP280;9663;48.996;8.334;2023-04-30T14:07:08;100402.47;;;32.28
19061;BMP280;9663;48.996;8.334;2023-04-30T14:09:34;100396.66;;;32.43
19061;BMP280;9663;48.996;8.334;2023-04-30T14:12:00;100379.91;;;32.63
19061;BMP280;9663;48.996;8.334;2023-04-30T14:14:27;100394.69;;;32.64
19061;BMP280;9663;48.996;8.334;2023-04-30T14:16:53;100387.81;;;32.53
19061;BMP280;9663;48.996;8.334;2023-04-30T14:19:23;100377.59;;;32.41
19061;BMP280;9663;48.996;8.334;2023-04-30T14:21:48;100376.91;;;32.20
19061;BMP280;9663;48.996;8.334;2023-04-30T14:24:14;100373.44;;;32.10
19061;BMP280;9663;48.996;8.334;2023-04-30T14:26:42;100372.75;;;31.99
19061;BMP280;9663;48.996;8.334;2023-04-30T14:29:10;100366.25;;;31.84
19061;BMP280;9663;48.996;8.334;2023-04-30T14:31:36;100377.41;;;31.67
19061;BMP280;9663;48.996;8.334;2023-04-30T14:34:02;100366.22;;;31.56